createdAt,value
2017-12-27T00:05:26.500Z,92.51
2017-12-27T00:08:00.932Z,90.82
2017-12-27T00:10:35.337Z,90.38
2017-12-27T00:13:15.337Z,91.04
2017-12-27T00:18:59.140Z,93.10
2017-12-27T00:21:34.038Z,94.79
2017-12-27T00:24:11.554Z,94.79
2017-12-27T00:26:46.101Z,93.85
2017-12-27T00:29:20.535Z,93.57
2017-12-27T00:31:56.345Z,92.39
2017-12-27T00:34:26.289Z,91.62
2017-12-27T00:37:04.610Z,91.32
2017-12-27T00:39:33.621Z,91.56
2017-12-27T00:44:39.668Z,90.31
2017-12-27T00:47:08.701Z,91.29
2017-12-27T00:52:14.489Z,89.67
2017-12-27T00:57:21.718Z,89.71
2017-12-27T00:59:50.952Z,89.64
2017-12-27T01:02:19.986Z,89.41
2017-12-27T01:04:52.223Z,89.36
2017-12-27T01:07:21.264Z,89.63
2017-12-27T01:09:58.825Z,89.44
2017-12-27T01:12:27.869Z,89.45
2017-12-27T01:15:00.753Z,90.20
2017-12-27T01:17:29.793Z,90.08
2017-12-27T01:20:03.690Z,89.69
2017-12-27T01:22:32.756Z,89.89
2017-12-27T01:30:12.775Z,90.61
2017-12-27T01:32:41.809Z,91.70
2017-12-27T01:35:11.801Z,91.34
2017-12-27T01:37:40.838Z,90.24
2017-12-27T01:40:13.389Z,91.34
2017-12-27T01:42:42.426Z,90.46
2017-12-27T01:45:15.198Z,89.85
2017-12-27T01:47:44.264Z,90.85
2017-12-27T01:50:15.449Z,90.24
2017-12-27T01:52:44.512Z,89.96
2017-12-27T01:55:16.797Z,90.05
2017-12-27T01:57:45.845Z,89.87
2017-12-27T02:00:14.886Z,89.65
2017-12-27T02:02:43.934Z,89.96
2017-12-27T02:05:13.899Z,90.12
2017-12-27T02:07:42.948Z,90.45
2017-12-27T02:10:13.026Z,89.91
2017-12-27T02:12:42.089Z,91.06
2017-12-27T02:15:22.406Z,90.51
2017-12-27T02:17:51.433Z,89.58
2017-12-27T02:25:37.947Z,90.20
2017-12-27T02:28:08.872Z,89.95
2017-12-27T02:30:38.890Z,90.56
2017-12-27T02:33:11.478Z,91.82
2017-12-27T02:35:40.713Z,91.75
2017-12-27T02:38:09.754Z,92.33
2017-12-27T02:40:38.802Z,91.50
2017-12-27T02:43:11.637Z,91.55
2017-12-27T02:45:40.701Z,92.50
2017-12-27T02:48:09.736Z,91.95
2017-12-27T02:50:38.769Z,91.67
2017-12-27T02:53:11.212Z,90.73
2017-12-27T02:55:40.265Z,91.59
2017-12-27T02:58:10.229Z,90.11
2017-12-27T03:00:39.282Z,90.56
2017-12-27T03:03:08.467Z,90.95
2017-12-27T03:08:15.085Z,89.60
2017-12-27T03:10:46.171Z,90.85
2017-12-27T03:13:15.225Z,90.49
2017-12-27T03:15:52.067Z,91.25
2017-12-27T03:18:21.127Z,91.09
2017-12-27T03:23:27.867Z,91.04
2017-12-27T03:26:01.558Z,90.88
2017-12-27T03:28:42.621Z,91.18
2017-12-27T03:31:11.720Z,90.41
2017-12-27T03:33:40.765Z,90.68
2017-12-27T03:36:09.805Z,91.17
2017-12-27T03:38:38.865Z,91.42
2017-12-27T03:41:08.053Z,90.65
2017-12-27T03:43:38.077Z,90.28
2017-12-27T03:46:07.079Z,90.57
2017-12-27T03:48:39.218Z,90.17
2017-12-27T03:51:08.275Z,89.55
2017-12-27T03:53:37.321Z,91.23
2017-12-27T03:56:06.353Z,90.79
2017-12-27T03:58:35.405Z,89.90
2017-12-27T04:01:04.462Z,89.54
2017-12-27T04:06:08.838Z,89.99
2017-12-27T04:08:53.242Z,90.01
2017-12-27T04:11:22.288Z,91.37
2017-12-27T04:13:51.333Z,90.33
2017-12-27T04:16:20.381Z,90.87
2017-12-27T04:18:49.430Z,90.77
2017-12-27T04:21:18.485Z,89.91
2017-12-27T04:26:23.799Z,90.33
2017-12-27T04:28:52.845Z,91.09
2017-12-27T04:31:21.944Z,90.64
2017-12-27T04:33:51.008Z,89.67
2017-12-27T04:36:20.037Z,90.12
2017-12-27T04:38:50.058Z,89.85
2017-12-27T04:41:19.110Z,89.35
2017-12-27T04:43:50.125Z,89.75
2017-12-27T04:46:19.158Z,89.17
2017-12-27T04:48:57.617Z,88.67
2017-12-27T04:51:26.731Z,90.45
2017-12-27T04:56:30.969Z,89.16
2017-12-27T04:59:01.911Z,88.70
2017-12-27T05:01:30.945Z,88.98
2017-12-27T05:06:37.716Z,89.21
2017-12-27T05:09:08.743Z,90.52
2017-12-27T05:11:37.781Z,89.62
2017-12-27T05:14:06.829Z,89.60
2017-12-27T05:16:35.877Z,89.94
2017-12-27T05:21:41.645Z,88.86
2017-12-27T05:24:16.519Z,90.60
2017-12-27T05:26:46.469Z,89.75
2017-12-27T05:29:15.512Z,88.59
2017-12-27T05:31:46.501Z,89.09
2017-12-27T05:34:15.573Z,89.52
2017-12-27T05:36:45.529Z,88.99
2017-12-27T05:39:16.557Z,88.40
2017-12-27T05:41:45.709Z,90.57
2017-12-27T05:46:54.385Z,90.07
2017-12-27T05:49:24.348Z,89.61
2017-12-27T05:52:07.905Z,91.00
2017-12-27T05:54:36.945Z,89.52
2017-12-27T05:57:09.534Z,88.55
2017-12-27T05:59:38.602Z,88.80
2017-12-27T06:02:07.671Z,88.47
2017-12-27T06:04:36.706Z,88.91
2017-12-27T06:07:05.750Z,89.26
2017-12-27T06:09:34.795Z,89.22
2017-12-27T06:12:03.857Z,89.76
2017-12-27T06:14:32.898Z,89.30
2017-12-27T06:17:01.934Z,88.97
2017-12-27T06:19:30.969Z,88.58
2017-12-27T06:22:00.066Z,89.17
2017-12-27T06:24:29.112Z,88.72
2017-12-27T06:29:34.402Z,89.68
2017-12-27T06:32:03.861Z,90.56
2017-12-27T06:34:33.881Z,89.40
2017-12-27T06:37:02.933Z,88.85
2017-12-27T06:39:32.900Z,89.21
2017-12-27T06:42:01.964Z,89.20
2017-12-27T06:44:31.057Z,89.38
2017-12-27T06:47:00.099Z,90.04
2017-12-27T06:49:29.147Z,89.24
2017-12-27T06:51:58.203Z,88.99
2017-12-27T06:54:27.233Z,89.29
2017-12-27T06:56:56.282Z,88.32
2017-12-27T07:02:00.697Z,87.75
2017-12-27T07:04:29.726Z,88.31
2017-12-27T07:06:58.765Z,88.23
2017-12-27T07:09:29.773Z,87.85
2017-12-27T07:11:58.813Z,87.47
2017-12-27T07:14:31.599Z,88.33
2017-12-27T07:17:00.638Z,88.43
2017-12-27T07:19:29.684Z,88.50
2017-12-27T07:21:58.725Z,87.85
2017-12-27T07:24:27.782Z,87.79
2017-12-27T07:26:56.840Z,88.54
2017-12-27T07:29:25.905Z,88.84
2017-12-27T07:31:55.978Z,88.25
2017-12-27T07:34:25.030Z,88.19
2017-12-27T07:37:07.853Z,87.90
2017-12-27T07:39:36.980Z,87.33
2017-12-27T07:42:07.109Z,87.72
2017-12-27T07:44:36.140Z,88.00
2017-12-27T07:47:07.085Z,88.20
2017-12-27T07:49:38.091Z,87.82
2017-12-27T07:52:08.429Z,87.78
2017-12-27T07:54:38.437Z,87.71
2017-12-27T07:57:07.469Z,88.11
2017-12-27T07:59:36.519Z,86.94
2017-12-27T08:02:06.475Z,87.03
2017-12-27T08:04:38.850Z,86.42
2017-12-27T08:07:07.877Z,85.99
2017-12-27T08:09:38.909Z,85.66
2017-12-27T08:12:08.926Z,87.13
2017-12-27T08:14:38.905Z,86.12
2017-12-27T08:17:07.957Z,85.40
2017-12-27T08:19:37.014Z,86.84
2017-12-27T08:22:06.960Z,86.76
2017-12-27T08:24:41.347Z,85.79
2017-12-27T08:27:10.405Z,85.54
2017-12-27T08:29:47.168Z,85.82
2017-12-27T08:32:16.210Z,85.84
2017-12-27T08:37:21.427Z,85.10
2017-12-27T08:39:50.470Z,83.94
2017-12-27T08:42:19.507Z,83.74
2017-12-27T08:44:48.596Z,83.92
2017-12-27T08:47:17.621Z,82.55
2017-12-27T08:49:48.598Z,83.46
2017-12-27T08:52:17.630Z,82.80
2017-12-27T08:54:47.725Z,81.77
2017-12-27T08:57:16.778Z,83.16
2017-12-27T08:59:49.655Z,82.32
2017-12-27T09:02:18.986Z,83.18
2017-12-27T09:04:48.045Z,82.54
2017-12-27T09:07:17.092Z,81.55
2017-12-27T09:09:48.079Z,81.71
2017-12-27T09:12:17.130Z,82.49
2017-12-27T09:14:46.170Z,81.67
2017-12-27T09:17:15.213Z,81.97
2017-12-27T09:19:45.184Z,81.94
2017-12-27T09:22:14.265Z,81.77
2017-12-27T09:24:43.299Z,80.37
2017-12-27T09:27:12.333Z,81.63
2017-12-27T09:29:42.297Z,81.03
2017-12-27T09:32:11.335Z,80.59
2017-12-27T09:34:40.424Z,80.23
2017-12-27T09:37:09.453Z,80.12
2017-12-27T09:39:41.893Z,78.51
2017-12-27T09:42:10.950Z,78.89
2017-12-27T09:44:39.994Z,78.45
2017-12-27T09:47:09.036Z,77.30
2017-12-27T09:49:38.094Z,76.37
2017-12-27T09:52:07.264Z,73.76
2017-12-27T09:57:11.552Z,75.64
2017-12-27T09:59:40.580Z,74.09
2017-12-27T10:02:15.144Z,75.17
2017-12-27T10:04:44.198Z,71.28
2017-12-27T10:07:14.242Z,70.54
2017-12-27T10:09:43.312Z,69.09
2017-12-27T10:12:12.442Z,63.02
2017-12-27T10:14:41.525Z,68.05
2017-12-27T10:17:10.553Z,64.77
2017-12-27T10:19:41.591Z,65.45
2017-12-27T10:22:10.629Z,70.13
2017-12-27T10:24:41.628Z,64.37
2017-12-27T10:27:10.657Z,68.45
2017-12-27T10:29:40.633Z,72.92
2017-12-27T10:32:09.666Z,72.99
2017-12-27T10:34:39.660Z,71.12
2017-12-27T10:37:08.694Z,71.94
2017-12-27T10:39:40.818Z,71.98
2017-12-27T10:42:09.904Z,72.11
2017-12-27T10:44:43.581Z,72.95
2017-12-27T10:47:12.577Z,73.60
2017-12-27T10:49:41.620Z,73.57
2017-12-27T10:52:10.648Z,73.42
2017-12-27T10:54:39.693Z,73.53
2017-12-27T10:57:08.733Z,73.58
2017-12-27T10:59:39.778Z,73.56
2017-12-27T11:02:08.818Z,74.09
2017-12-27T11:04:42.576Z,73.80
2017-12-27T11:07:11.704Z,75.52
2017-12-27T11:09:40.737Z,75.72
2017-12-27T11:12:09.771Z,77.16
2017-12-27T11:17:15.053Z,76.15
2017-12-27T11:19:45.066Z,75.06
2017-12-27T11:22:14.100Z,74.12
2017-12-27T11:24:43.146Z,76.85
2017-12-27T11:27:12.169Z,76.20
2017-12-27T11:29:44.422Z,77.11
2017-12-27T11:32:13.465Z,77.87
2017-12-27T11:34:43.445Z,76.91
2017-12-27T11:37:12.540Z,75.82
2017-12-27T11:39:42.565Z,75.04
2017-12-27T11:42:11.612Z,74.38
2017-12-27T11:44:41.693Z,74.32
2017-12-27T11:47:10.746Z,74.87
2017-12-27T11:49:40.690Z,74.99
2017-12-27T11:54:44.973Z,73.19
2017-12-27T11:57:14.026Z,73.00
2017-12-27T11:59:43.069Z,72.69
2017-12-27T12:02:12.274Z,71.78
2017-12-27T12:04:42.221Z,73.50
2017-12-27T12:07:11.252Z,73.23
2017-12-27T12:09:40.353Z,71.40
2017-12-27T12:12:09.393Z,69.27
2017-12-27T12:14:41.617Z,65.27
2017-12-27T12:17:10.655Z,60.94
2017-12-27T12:19:40.646Z,59.51
2017-12-27T12:22:09.722Z,57.38
2017-12-27T12:24:38.753Z,59.47
2017-12-27T12:27:07.830Z,59.87
2017-12-27T12:29:36.844Z,62.15
2017-12-27T12:32:05.885Z,62.99
2017-12-27T12:34:34.941Z,64.09
2017-12-27T12:37:04.955Z,63.96
2017-12-27T12:39:36.005Z,64.59
2017-12-27T12:42:05.040Z,66.42
2017-12-27T12:47:09.294Z,65.58
2017-12-27T12:49:40.409Z,68.44
2017-12-27T12:52:09.486Z,68.74
2017-12-27T12:54:40.522Z,69.35
2017-12-27T12:57:09.589Z,68.76
2017-12-27T12:59:39.541Z,69.26
2017-12-27T13:02:08.615Z,69.83
2017-12-27T13:04:37.700Z,67.51
2017-12-27T13:07:08.189Z,68.40
2017-12-27T13:09:39.221Z,67.04
2017-12-27T13:12:08.256Z,67.26
2017-12-27T13:14:41.297Z,66.68
2017-12-27T13:17:10.337Z,66.71
2017-12-27T13:22:14.602Z,67.95
2017-12-27T13:24:43.662Z,69.03
2017-12-27T13:27:12.695Z,69.83
2017-12-27T13:29:41.772Z,70.89
2017-12-27T13:32:10.813Z,71.07
2017-12-27T13:34:39.841Z,71.54
2017-12-27T13:37:08.914Z,71.81
2017-12-27T13:39:37.949Z,71.96
2017-12-27T13:42:07.074Z,72.70
2017-12-27T13:44:38.070Z,72.62
2017-12-27T13:47:07.114Z,73.24
2017-12-27T13:49:36.193Z,72.76
2017-12-27T13:52:07.175Z,73.45
2017-12-27T13:54:36.207Z,74.08
2017-12-27T13:59:40.513Z,74.75
2017-12-27T14:02:11.489Z,75.63
2017-12-27T14:04:40.529Z,77.65
2017-12-27T14:07:13.278Z,76.48
2017-12-27T14:09:42.342Z,77.43
2017-12-27T14:12:12.336Z,77.93
2017-12-27T14:14:41.417Z,77.91
2017-12-27T14:17:10.454Z,75.42
2017-12-27T14:19:39.497Z,77.94
2017-12-27T14:24:43.764Z,75.47
2017-12-27T14:27:14.771Z,74.93
2017-12-27T14:29:43.821Z,75.95
2017-12-27T14:32:12.870Z,75.51
2017-12-27T14:34:42.977Z,76.36
2017-12-27T14:37:12.049Z,77.10
2017-12-27T14:39:41.073Z,76.93
2017-12-27T14:42:10.209Z,78.37
2017-12-27T14:44:39.283Z,76.72
2017-12-27T14:49:44.557Z,80.14
2017-12-27T14:52:14.605Z,80.27
2017-12-27T14:54:43.655Z,80.28
2017-12-27T14:57:12.689Z,78.83
2017-12-27T14:59:41.723Z,80.52
2017-12-27T15:02:12.754Z,80.11
2017-12-27T15:04:41.791Z,77.62
2017-12-27T15:07:10.835Z,78.55
2017-12-27T15:09:39.878Z,77.31
2017-12-27T15:12:08.933Z,77.89
2017-12-27T15:14:38.024Z,78.60
2017-12-27T15:19:44.469Z,80.58
2017-12-27T15:22:13.514Z,81.69
2017-12-27T15:24:42.546Z,81.82
2017-12-27T15:27:11.594Z,81.35
2017-12-27T15:29:40.634Z,83.98
2017-12-27T15:32:11.827Z,82.99
2017-12-27T15:34:40.865Z,84.45
2017-12-27T15:39:45.101Z,85.30
2017-12-27T15:42:15.207Z,85.21
2017-12-27T15:44:44.267Z,83.46
2017-12-27T15:47:13.338Z,83.59
2017-12-27T15:49:42.376Z,83.15
2017-12-27T15:52:11.430Z,82.47
2017-12-27T15:54:42.430Z,82.81
2017-12-27T15:57:11.481Z,82.41
2017-12-27T15:59:40.572Z,82.77
2017-12-27T16:02:11.582Z,82.75
2017-12-27T16:04:41.625Z,82.33
2017-12-27T16:07:11.642Z,82.02
2017-12-27T16:09:44.449Z,83.12
2017-12-27T16:12:13.585Z,82.22
2017-12-27T16:14:43.519Z,81.40
2017-12-27T16:17:16.096Z,80.82
2017-12-27T16:22:27.557Z,80.14
2017-12-27T16:24:56.603Z,81.05
2017-12-27T16:27:25.698Z,80.06
2017-12-27T16:29:54.804Z,81.34
2017-12-27T16:32:24.825Z,80.03
2017-12-27T16:34:53.926Z,79.42
2017-12-27T16:37:22.982Z,80.56
2017-12-27T16:39:52.026Z,80.77
2017-12-27T16:44:56.297Z,79.47
2017-12-27T16:47:25.361Z,81.03
2017-12-27T16:49:54.413Z,80.76
2017-12-27T16:52:24.368Z,81.00
2017-12-27T16:54:53.438Z,79.70
2017-12-27T16:57:22.480Z,80.08
2017-12-27T16:59:51.529Z,79.21
2017-12-27T17:02:20.603Z,79.68
2017-12-27T17:04:50.540Z,79.02
2017-12-27T17:07:19.579Z,79.36
2017-12-27T17:12:23.851Z,79.60
2017-12-27T17:14:52.881Z,81.09
2017-12-27T17:17:31.666Z,81.09
2017-12-27T17:20:00.702Z,82.16
2017-12-27T17:22:30.818Z,82.31
2017-12-27T17:24:59.849Z,83.42
2017-12-27T17:27:28.891Z,81.90
2017-12-27T17:29:57.930Z,83.21
2017-12-27T17:32:27.006Z,83.37
2017-12-27T17:34:57.038Z,83.71
2017-12-27T17:37:26.109Z,84.16
2017-12-27T17:42:30.347Z,82.96
2017-12-27T17:44:59.380Z,83.40
2017-12-27T17:47:28.440Z,81.29
2017-12-27T17:49:57.487Z,81.44
2017-12-27T17:52:26.520Z,81.69
2017-12-27T17:54:55.829Z,81.95
2017-12-27T17:57:25.796Z,81.83
2017-12-27T17:59:59.346Z,81.13
2017-12-27T18:02:28.393Z,80.34
2017-12-27T18:04:57.440Z,80.75
2017-12-27T18:07:26.489Z,81.52
2017-12-27T18:09:55.533Z,82.13
2017-12-27T18:15:00.818Z,83.13
2017-12-27T18:17:29.840Z,83.37
2017-12-27T18:19:58.878Z,83.41
2017-12-27T18:22:27.909Z,83.35
2017-12-27T18:25:06.822Z,83.46
2017-12-27T18:27:35.881Z,83.22
2017-12-27T18:30:05.994Z,83.41
2017-12-27T18:32:35.404Z,85.60
2017-12-27T18:35:06.497Z,87.30
2017-12-27T18:37:36.533Z,87.99
2017-12-27T18:40:06.536Z,89.70
2017-12-27T18:42:35.569Z,90.84
2017-12-27T18:45:04.603Z,90.22
2017-12-27T18:47:36.866Z,89.39
2017-12-27T18:50:07.050Z,89.10
2017-12-27T18:52:36.793Z,90.29
2017-12-27T18:55:06.123Z,91.23
2017-12-27T18:57:35.911Z,92.24
2017-12-27T19:00:09.452Z,92.37
2017-12-27T19:02:40.547Z,93.36
2017-12-27T19:05:09.624Z,93.58
2017-12-27T19:07:41.135Z,93.22
2017-12-27T19:10:13.740Z,94.40
2017-12-27T19:12:47.154Z,94.92
2017-12-27T19:15:16.741Z,95.42
2017-12-27T19:20:21.069Z,95.34
2017-12-27T19:22:52.519Z,95.53
2017-12-27T19:25:21.788Z,95.87
2017-12-27T19:27:54.049Z,95.22
2017-12-27T19:30:23.939Z,95.00
2017-12-27T19:32:53.213Z,95.50
2017-12-27T19:35:22.740Z,96.51
2017-12-27T19:37:53.682Z,96.69
2017-12-27T19:40:22.909Z,96.84
2017-12-27T19:42:52.915Z,95.96
2017-12-27T19:45:21.960Z,96.00
2017-12-27T19:47:51.109Z,97.18
2017-12-27T19:50:20.158Z,96.90
2017-12-27T19:52:49.215Z,97.30
2017-12-27T19:55:18.345Z,97.64
2017-12-27T19:57:47.394Z,98.00
2017-12-27T20:00:16.500Z,98.29
2017-12-27T20:02:45.537Z,98.35
2017-12-27T20:05:15.001Z,98.62
2017-12-27T20:07:44.026Z,98.54
2017-12-27T20:10:13.061Z,98.39
2017-12-27T20:12:42.144Z,98.00
2017-12-27T20:15:11.206Z,97.77
2017-12-27T20:17:43.383Z,97.88
2017-12-27T20:20:13.446Z,97.93
2017-12-27T20:22:42.483Z,98.13
2017-12-27T20:25:11.525Z,97.74
2017-12-27T20:27:40.690Z,98.24
2017-12-27T20:30:12.679Z,98.36
2017-12-27T20:32:44.645Z,98.46
2017-12-27T20:35:13.846Z,97.97
2017-12-27T20:37:45.395Z,98.15
2017-12-27T20:40:17.766Z,98.37
2017-12-27T20:42:50.974Z,98.38
2017-12-27T20:45:20.183Z,98.01
2017-12-27T20:47:50.116Z,98.05
2017-12-27T20:50:19.365Z,97.09
2017-12-27T20:52:50.690Z,97.78
2017-12-27T20:55:20.991Z,98.03
2017-12-27T21:00:27.787Z,97.98
2017-12-27T21:02:58.762Z,98.28
2017-12-27T21:05:29.802Z,98.39
2017-12-27T21:07:59.735Z,98.35
2017-12-27T21:10:29.073Z,98.38
2017-12-27T21:13:07.673Z,97.87
2017-12-27T21:15:36.837Z,97.61
2017-12-27T21:18:05.935Z,97.82
2017-12-27T21:20:44.343Z,97.37
2017-12-27T21:23:15.470Z,97.81
2017-12-27T21:25:46.546Z,98.16
2017-12-27T21:28:18.368Z,98.25
2017-12-27T21:30:51.164Z,98.42
2017-12-27T21:33:20.407Z,98.73
2017-12-27T21:35:50.547Z,99.08
2017-12-27T21:38:19.711Z,98.78
2017-12-27T21:40:48.885Z,98.69
2017-12-27T21:43:17.956Z,98.78
2017-12-27T21:45:47.049Z,99.03
2017-12-27T21:48:21.518Z,99.24
2017-12-27T21:50:51.561Z,99.23
2017-12-27T21:53:20.606Z,99.61
2017-12-27T21:55:51.935Z,99.70
2017-12-27T21:58:26.509Z,99.62
2017-12-27T22:01:00.959Z,99.46
2017-12-27T22:03:30.132Z,99.26
2017-12-27T22:05:59.182Z,99.62
2017-12-27T22:08:28.221Z,99.68
2017-12-27T22:10:57.335Z,99.17
2017-12-27T22:13:26.438Z,98.91
2017-12-27T22:15:55.475Z,98.93
2017-12-27T22:21:07.507Z,99.09
2017-12-27T22:23:36.549Z,99.05
2017-12-27T22:26:05.621Z,99.08
2017-12-27T22:28:34.657Z,99.49
2017-12-27T22:31:08.226Z,99.72
2017-12-27T22:33:38.207Z,99.71
2017-12-27T22:36:07.238Z,99.55
2017-12-27T22:38:36.287Z,99.45
2017-12-27T22:41:07.229Z,99.70
2017-12-27T22:43:36.289Z,99.91
2017-12-27T22:46:05.340Z,99.77
2017-12-27T22:48:34.410Z,99.96
2017-12-27T22:51:04.430Z,100.00
2017-12-27T22:53:33.449Z,100.00
2017-12-27T22:56:02.519Z,100.00
2017-12-27T22:58:31.567Z,100.00
2017-12-27T23:01:00.616Z,100.00
2017-12-27T23:03:29.646Z,100.00
2017-12-27T23:06:01.973Z,100.00
2017-12-27T23:08:30.980Z,100.00
2017-12-27T23:11:04.692Z,100.00
2017-12-27T23:13:33.720Z,100.00
2017-12-27T23:16:02.766Z,100.00
2017-12-27T23:18:31.796Z,100.00
2017-12-27T23:21:04.137Z,100.00
2017-12-27T23:23:37.921Z,100.00
2017-12-27T23:26:09.059Z,100.00
2017-12-27T23:28:38.114Z,100.00
2017-12-27T23:31:09.113Z,100.00
2017-12-27T23:33:43.025Z,99.62
2017-12-27T23:36:13.272Z,99.83
2017-12-27T23:38:43.644Z,99.62
2017-12-27T23:41:12.757Z,99.13
2017-12-27T23:43:41.879Z,99.05
2017-12-27T23:46:10.908Z,99.25
2017-12-27T23:48:47.292Z,99.20
2017-12-27T23:51:16.330Z,98.56
2017-12-27T23:53:45.362Z,98.40
2017-12-27T23:56:19.898Z,98.26
2017-12-27T23:58:48.906Z,98.31
